Time;durP1;ratioP1;P1;durP2;ratioP2;P2;SDS_P1;SDS_P2;PMS_P1;PMS_P2;Temp;Humidity;BMP_temperature;BMP_pressure;BME280_temperature;BME280_humidity;BME280_pressure;Samples;Min_cycle;Max_cycle;Signal;HPM_P1;HPM_P2
2021/09/21 00:00:38;;;;;;;8.43;6.60;;;;;;;15.53;66.32;101094.91;5009758;28;21015;-77
2021/09/21 00:03:03;;;;;;;6.70;6.20;;;;;;;15.51;66.38;101105.25;4995137;28;20646;-76
2021/09/21 00:05:28;;;;;;;6.90;6.30;;;;;;;15.54;66.52;101095.75;5008929;28;20412;-77
2021/09/21 00:07:54;;;;;;;6.40;5.80;;;;;;;15.58;66.28;101097.66;4995398;28;20448;-76
2021/09/21 00:10:19;;;;;;;8.47;5.73;;;;;;;15.60;66.21;101091.97;5011298;28;20424;-76
2021/09/21 00:12:45;;;;;;;6.70;6.10;;;;;;;15.58;66.01;101092.22;5010747;28;20435;-76
2021/09/21 00:15:14;;;;;;;7.27;6.77;;;;;;;15.59;66.81;101090.31;5011916;28;20423;-76
2021/09/21 00:17:40;;;;;;;6.20;5.70;;;;;;;15.60;65.60;101091.13;5016681;28;20415;-76
2021/09/21 00:20:06;;;;;;;6.63;6.13;;;;;;;15.58;65.98;101097.66;5010861;28;20405;-76
2021/09/21 00:22:32;;;;;;;6.88;6.28;;;;;;;15.57;65.22;101100.69;5008920;28;20468;-76
2021/09/21 00:24:57;;;;;;;7.60;6.57;;;;;;;15.56;65.41;101097.13;5005296;28;20409;-76
2021/09/21 00:27:22;;;;;;;7.30;6.60;;;;;;;15.56;65.74;101108.06;5012950;28;20432;-76
2021/09/21 00:29:47;;;;;;;9.17;6.53;;;;;;;15.52;64.69;101106.09;5010224;28;20768;-77
2021/09/21 00:32:16;;;;;;;6.38;5.85;;;;;;;15.50;64.68;101109.09;5011468;28;20947;-76
2021/09/21 00:34:43;;;;;;;7.10;6.45;;;;;;;15.49;65.46;101099.25;5010114;28;20451;-76
2021/09/21 00:37:10;;;;;;;7.15;6.55;;;;;;;15.49;65.56;101103.88;5012446;28;20962;-77
2021/09/21 00:39:36;;;;;;;6.88;6.32;;;;;;;15.49;66.25;101095.69;5022336;28;20412;-77
2021/09/21 00:42:01;;;;;;;7.27;6.67;;;;;;;15.51;66.69;101094.34;5007645;28;20415;-77
2021/09/21 00:44:27;;;;;;;6.47;5.87;;;;;;;15.53;65.81;101107.75;4993765;28;20413;-76
2021/09/21 00:46:52;;;;;;;6.75;6.25;;;;;;;15.53;65.54;101110.47;5012109;28;20848;-76
2021/09/21 00:49:18;;;;;;;6.40;5.87;;;;;;;15.50;65.04;101109.09;5010618;28;20930;-77
2021/09/21 00:51:43;;;;;;;6.23;5.63;;;;;;;15.51;64.25;101115.41;4994050;28;20401;-76
2021/09/21 00:54:09;;;;;;;6.43;5.90;;;;;;;15.50;64.83;101111.84;5009952;28;20413;-76
2021/09/21 00:56:37;;;;;;;7.13;5.60;;;;;;;15.50;64.63;101109.09;4993645;28;20409;-76
2021/09/21 00:59:02;;;;;;;6.47;5.93;;;;;;;15.50;64.37;101100.09;5011353;28;20435;-76
2021/09/21 01:01:28;;;;;;;7.00;6.23;;;;;;;15.47;63.95;101103.31;5008026;28;20417;-76
2021/09/21 01:03:54;;;;;;;6.20;5.60;;;;;;;15.46;63.89;101098.91;5005724;28;20420;-76
2021/09/21 01:06:19;;;;;;;6.00;5.50;;;;;;;15.39;63.08;101099.13;5007019;28;20423;-76
2021/09/21 01:08:44;;;;;;;6.67;6.00;;;;;;;15.36;64.48;101096.09;5003791;28;20496;-76
2021/09/21 01:11:13;;;;;;;6.50;6.00;;;;;;;15.37;64.87;101109.50;5009311;28;20425;-77
2021/09/21 01:13:39;;;;;;;6.47;5.95;;;;;;;15.36;65.70;101115.22;5007345;28;20797;-76
2021/09/21 01:16:05;;;;;;;6.75;6.15;;;;;;;15.29;64.02;101118.16;5008570;28;20463;-76
2021/09/21 01:18:32;;;;;;;6.72;6.05;;;;;;;15.25;63.62;101116.22;5007581;28;20496;-76
2021/09/21 01:21:10;;;;;;;6.63;6.03;;;;;;;15.24;64.57;101117.31;5008705;28;20413;-76
2021/09/21 01:23:53;;;;;;;6.93;6.28;;;;;;;15.21;64.80;101118.66;4985962;28;20424;-76
2021/09/21 01:26:21;;;;;;;7.10;6.17;;;;;;;15.20;65.16;101106.09;5008860;28;20434;-77
2021/09/21 01:28:47;;;;;;;7.07;6.38;;;;;;;15.20;64.75;101117.00;5006513;28;20404;-77
2021/09/21 01:31:12;;;;;;;7.18;6.55;;;;;;;15.18;64.50;101105.50;5007458;28;20499;-76
2021/09/21 01:33:38;;;;;;;7.53;6.55;;;;;;;15.14;65.44;101103.56;5005904;28;20484;-76
2021/09/21 01:36:04;;;;;;;6.57;6.07;;;;;;;15.13;64.91;101116.38;5009355;28;20475;-76
2021/09/21 01:38:30;;;;;;;7.20;6.60;;;;;;;15.15;64.98;101119.66;5006539;28;20436;-76
2021/09/21 01:40:55;;;;;;;7.00;6.30;;;;;;;15.13;64.96;101112.84;5011298;28;20439;-77
2021/09/21 01:43:20;;;;;;;6.97;6.40;;;;;;;15.13;65.17;101118.28;5006470;28;20424;-76
2021/09/21 01:45:47;;;;;;;6.90;6.40;;;;;;;15.11;64.66;101121.28;5010445;28;20400;-76
2021/09/21 01:48:12;;;;;;;6.00;5.60;;;;;;;15.10;63.68;101124.28;4991650;28;20428;-76
2021/09/21 01:50:59;;;;;;;6.77;6.07;;;;;;;15.07;62.98;101115.53;5008093;28;20760;-76
2021/09/21 01:53:40;;;;;;;7.22;6.53;;;;;;;15.03;63.67;101110.84;4986924;28;20451;-76
2021/09/21 01:58:52;;;;;;;7.07;6.43;;;;;;;14.99;64.86;101107.78;5010665;28;20439;-76
2021/09/21 02:01:21;;;;;;;6.80;6.03;;;;;;;15.01;64.38;101111.09;5011039;28;20401;-76
2021/09/21 02:03:47;;;;;;;7.50;6.60;;;;;;;15.04;64.46;101117.94;5008849;28;20750;-76
2021/09/21 02:06:13;;;;;;;6.55;6.05;;;;;;;15.01;63.60;101116.56;5008263;28;20426;-77
2021/09/21 02:08:38;;;;;;;7.17;6.57;;;;;;;15.01;64.26;101115.75;5008585;28;20484;-76
2021/09/21 02:11:04;;;;;;;7.57;6.83;;;;;;;14.96;63.72;101129.31;5010456;28;20510;-77
2021/09/21 02:13:29;;;;;;;7.95;6.40;;;;;;;14.89;64.25;101125.97;5009049;28;20922;-76
2021/09/21 02:15:55;;;;;;;7.37;6.77;;;;;;;14.86;64.37;101127.31;4991988;28;20923;-76
2021/09/21 02:18:20;;;;;;;7.25;6.55;;;;;;;14.85;64.33;101124.84;5006324;28;20411;-76
2021/09/21 02:20:46;;;;;;;7.57;6.87;;;;;;;14.84;64.78;101134.09;5010396;28;20484;-76
2021/09/21 02:23:11;;;;;;;7.17;6.67;;;;;;;14.81;64.24;101121.81;5004402;28;20445;-76
2021/09/21 02:25:36;;;;;;;7.47;6.77;;;;;;;14.76;64.66;101127.19;5006414;28;20946;-77
2021/09/21 02:28:02;;;;;;;6.82;6.32;;;;;;;14.72;64.37;101123.31;5008142;28;20452;-76
2021/09/21 02:30:27;;;;;;;7.50;6.97;;;;;;;14.64;65.06;101114.78;5009257;28;20458;-76
2021/09/21 02:32:52;;;;;;;7.60;7.00;;;;;;;14.62;65.68;101125.13;5007985;28;20456;-76
2021/09/21 02:35:18;;;;;;;7.57;6.90;;;;;;;14.60;66.28;101128.09;5010334;28;20488;-76
2021/09/21 02:37:44;;;;;;;7.80;7.10;;;;;;;14.58;65.76;101121.25;5010137;28;20730;-78
2021/09/21 02:40:11;;;;;;;8.13;7.40;;;;;;;14.50;65.47;101130.72;5004196;28;20449;-76
2021/09/21 02:42:36;;;;;;;7.38;6.68;;;;;;;14.49;65.31;101134.50;5002853;28;20917;-76
2021/09/21 02:45:04;;;;;;;6.90;6.37;;;;;;;14.48;65.00;101138.34;5010953;28;20499;-76
2021/09/21 02:47:29;;;;;;;7.78;7.05;;;;;;;14.45;65.56;101136.94;5007980;28;20408;-76
2021/09/21 02:49:54;;;;;;;7.57;6.90;;;;;;;14.47;65.58;101144.84;5007435;28;20460;-76
2021/09/21 02:52:19;;;;;;;7.00;6.40;;;;;;;14.42;65.00;101153.00;5010633;28;20396;-77
2021/09/21 02:54:45;;;;;;;8.20;6.77;;;;;;;14.44;64.32;101153.56;5021093;28;20907;-77
2021/09/21 02:57:10;;;;;;;7.28;6.55;;;;;;;14.49;64.99;101135.34;5009690;28;20440;-77
2021/09/21 02:59:35;;;;;;;7.10;6.40;;;;;;;14.52;65.00;101137.56;5009929;28;20791;-76
2021/09/21 03:02:01;;;;;;;6.90;6.30;;;;;;;14.53;64.43;101138.38;5010298;28;20408;-76
2021/09/21 03:04:33;;;;;;;7.10;6.40;;;;;;;14.54;64.89;101143.59;5008525;28;20495;-76
2021/09/21 03:07:04;;;;;;;7.18;6.28;;;;;;;14.55;63.83;101152.59;4993781;28;20496;-77
2021/09/21 03:12:11;;;;;;;6.70;6.00;;;;;;;14.50;63.52;101155.25;5008447;28;20820;-77
2021/09/21 03:17:26;;;;;;;6.93;6.35;;;;;;;14.50;63.36;101156.09;5008213;28;20461;-76
2021/09/21 03:19:53;;;;;;;7.10;6.40;;;;;;;14.43;62.62;101163.63;5013284;28;20883;-77
2021/09/21 03:22:19;;;;;;;7.27;6.73;;;;;;;14.45;63.12;101174.31;5011607;28;20884;-76
2021/09/21 03:24:44;;;;;;;7.35;6.47;;;;;;;14.48;63.34;101171.06;5013350;28;20462;-76
2021/09/21 03:27:09;;;;;;;6.63;5.90;;;;;;;14.53;63.74;101177.41;5013495;28;20408;-76
2021/09/21 03:29:35;;;;;;;7.23;6.60;;;;;;;14.56;63.49;101176.06;5004359;28;20559;-76
2021/09/21 03:32:00;;;;;;;8.87;7.13;;;;;;;14.56;62.68;101178.78;5012959;28;20397;-77
2021/09/21 03:34:26;;;;;;;11.55;6.70;;;;;;;14.59;62.81;101186.47;5013108;28;20409;-76
2021/09/21 03:36:51;;;;;;;5.37;5.03;;;;;;;14.62;62.03;101177.78;5013886;28;20855;-77
2021/09/21 03:39:17;;;;;;;5.87;5.43;;;;;;;14.62;62.06;101179.69;5011239;28;20412;-77
2021/09/21 03:41:42;;;;;;;6.53;5.85;;;;;;;14.64;62.13;101174.81;5014011;28;20416;-76
2021/09/21 03:44:07;;;;;;;6.63;5.67;;;;;;;14.65;61.36;101171.84;5012502;28;20417;-77
2021/09/21 03:46:33;;;;;;;7.78;6.30;;;;;;;14.66;61.07;101172.63;4992388;28;20453;-76
2021/09/21 03:48:58;;;;;;;6.57;5.93;;;;;;;14.69;60.94;101172.94;5007266;28;20494;-76
2021/09/21 03:51:23;;;;;;;6.03;5.63;;;;;;;14.67;60.65;101174.28;5011913;28;20417;-76
2021/09/21 03:53:49;;;;;;;6.53;6.03;;;;;;;14.67;60.32;101171.56;5011045;28;20413;-76
2021/09/21 03:56:14;;;;;;;6.30;5.80;;;;;;;14.69;61.05;101175.69;5012677;28;20409;-77
2021/09/21 03:58:40;;;;;;;6.68;5.82;;;;;;;14.68;60.46;101167.75;5011156;28;20409;-76
2021/09/21 04:01:05;;;;;;;5.97;5.53;;;;;;;14.60;59.70;101169.03;5013280;28;20408;-77
2021/09/21 04:03:30;;;;;;;7.90;6.00;;;;;;;14.62;59.22;101174.25;4994567;28;20525;-76
2021/09/21 04:05:55;;;;;;;5.50;5.10;;;;;;;14.57;59.17;101183.19;5011482;28;20404;-76
2021/09/21 04:08:21;;;;;;;9.37;6.33;;;;;;;14.59;60.44;101182.94;5008831;28;20413;-76
2021/09/21 04:10:47;;;;;;;6.83;6.23;;;;;;;14.56;59.80;101178.78;5003982;28;20709;-76
2021/09/21 04:13:12;;;;;;;6.45;5.78;;;;;;;14.59;60.10;101183.72;5012242;28;20509;-76
2021/09/21 04:15:37;;;;;;;6.70;6.03;;;;;;;14.59;60.31;101188.38;5013211;28;20404;-76
2021/09/21 04:18:04;;;;;;;6.13;5.63;;;;;;;14.64;60.21;101193.91;5009814;28;20409;-76
2021/09/21 04:20:30;;;;;;;6.97;6.32;;;;;;;14.65;60.49;101193.66;5011570;28;20409;-76
2021/09/21 04:22:56;;;;;;;6.43;5.85;;;;;;;14.66;59.86;101199.91;5009254;28;20413;-76
2021/09/21 04:25:21;;;;;;;7.10;6.50;;;;;;;14.66;60.33;101211.66;5012596;28;20899;-76
2021/09/21 04:27:47;;;;;;;6.37;5.87;;;;;;;14.69;59.97;101216.59;5011062;28;20447;-76
2021/09/21 04:30:18;;;;;;;6.53;6.03;;;;;;;14.68;59.71;101216.88;5008249;28;20513;-76
2021/09/21 04:32:43;;;;;;;6.40;5.82;;;;;;;14.69;59.50;101222.06;5011880;28;20400;-76
2021/09/21 04:35:09;;;;;;;6.83;6.17;;;;;;;14.69;59.74;101226.69;5011400;28;20980;-76
2021/09/21 04:37:35;;;;;;;6.77;6.10;;;;;;;14.61;58.74;101224.41;4989642;28;20489;-76
2021/09/21 04:40:01;;;;;;;7.40;6.70;;;;;;;14.65;59.69;101229.13;5010729;28;20769;-76
2021/09/21 04:42:28;;;;;;;7.13;6.30;;;;;;;14.64;59.07;101237.53;4983707;28;20508;-76
2021/09/21 04:44:54;;;;;;;7.35;6.72;;;;;;;14.59;58.90;101249.19;4997865;28;23101;-76
2021/09/21 04:47:19;;;;;;;6.70;6.20;;;;;;;14.57;59.20;101245.91;4999677;28;20520;-76
2021/09/21 04:49:44;;;;;;;8.45;6.40;;;;;;;14.62;60.06;101251.41;4998900;28;20432;-76
2021/09/21 04:52:10;;;;;;;8.50;6.50;;;;;;;14.65;59.37;101259.13;5000549;28;20409;-76
2021/09/21 04:54:35;;;;;;;6.60;6.10;;;;;;;14.67;59.51;101262.41;4999156;28;20455;-76
2021/09/21 04:57:00;;;;;;;7.07;6.47;;;;;;;14.61;58.75;101268.06;4998528;28;20463;-77
2021/09/21 04:59:26;;;;;;;7.43;6.70;;;;;;;14.55;58.65;101270.69;5001567;28;20409;-77
2021/09/21 05:01:52;;;;;;;7.63;6.43;;;;;;;14.53;58.48;101275.59;4982671;28;20969;-76
2021/09/21 05:04:17;;;;;;;6.87;6.27;;;;;;;14.56;58.85;101274.25;5000022;28;20431;-76
2021/09/21 05:06:43;;;;;;;6.85;6.32;;;;;;;14.55;58.19;101278.06;5000219;28;20884;-77
2021/09/21 05:09:12;;;;;;;8.63;6.90;;;;;;;14.52;58.09;101275.84;5000727;28;20579;-77
2021/09/21 05:11:37;;;;;;;7.97;6.10;;;;;;;14.52;57.77;101289.50;4999659;28;20511;-76
2021/09/21 05:14:03;;;;;;;7.45;6.57;;;;;;;14.52;58.38;101278.59;4999287;28;20409;-76
2021/09/21 05:16:29;;;;;;;9.30;6.90;;;;;;;14.54;59.12;101271.78;4999219;28;20463;-76
2021/09/21 05:18:54;;;;;;;7.90;6.93;;;;;;;14.57;58.55;101280.53;4999963;28;20472;-77
2021/09/21 05:21:19;;;;;;;7.10;6.40;;;;;;;14.53;58.40;101281.03;4997834;28;20917;-76
2021/09/21 05:23:44;;;;;;;7.87;6.70;;;;;;;14.52;58.26;101281.31;5000529;28;20416;-76
2021/09/21 05:26:10;;;;;;;7.63;6.90;;;;;;;14.57;58.88;101275.09;4997769;28;20439;-76
2021/09/21 05:28:35;;;;;;;9.48;7.30;;;;;;;14.52;58.61;101276.66;4996088;28;20969;-77
2021/09/21 05:31:00;;;;;;;11.63;7.43;;;;;;;14.53;59.09;101291.94;4995512;28;20926;-76
2021/09/21 05:33:26;;;;;;;9.73;7.53;;;;;;;14.57;60.21;101286.81;4997087;28;20903;-75
2021/09/21 05:35:52;;;;;;;8.73;7.67;;;;;;;14.59;59.95;101297.50;5007269;28;20437;-76
2021/09/21 05:38:17;;;;;;;8.55;6.75;;;;;;;14.61;59.67;101292.59;5005408;28;20418;-75
2021/09/21 05:40:43;;;;;;;9.13;8.23;;;;;;;14.60;59.48;101288.22;5008276;28;20409;-77
2021/09/21 05:43:08;;;;;;;7.40;6.70;;;;;;;14.63;59.86;101293.16;5004310;28;20415;-76
2021/09/21 05:45:34;;;;;;;7.82;7.13;;;;;;;14.63;59.86;101293.16;5007948;28;20424;-76
2021/09/21 05:47:59;;;;;;;11.57;7.13;;;;;;;14.63;59.65;101295.91;4998574;28;20423;-76
2021/09/21 05:50:25;;;;;;;8.17;7.00;;;;;;;14.52;59.69;101303.94;5008036;28;20401;-76
2021/09/21 05:52:50;;;;;;;7.97;7.27;;;;;;;14.51;60.18;101304.19;5022987;28;20566;-76
2021/09/21 05:55:15;;;;;;;11.07;7.63;;;;;;;14.48;60.26;101316.44;5008750;28;20419;-76
2021/09/21 05:57:42;;;;;;;9.23;7.33;;;;;;;14.48;60.15;101310.97;5012856;28;20458;-77
2021/09/21 06:00:08;;;;;;;8.50;7.33;;;;;;;14.52;60.43;101320.28;5006122;28;20415;-75
2021/09/21 06:02:34;;;;;;;10.73;8.35;;;;;;;14.48;60.37;101315.59;5008681;28;20413;-77
2021/09/21 06:04:59;;;;;;;9.17;7.67;;;;;;;14.54;61.16;101322.78;5007073;28;20431;-76
2021/09/21 06:07:24;;;;;;;12.17;7.73;;;;;;;14.65;60.73;101324.59;5007581;28;20499;-76
2021/09/21 06:09:50;;;;;;;8.60;7.60;;;;;;;14.75;60.44;101323.91;5003623;28;20409;-76
2021/09/21 06:12:15;;;;;;;8.00;7.30;;;;;;;14.75;60.75;101332.09;4999604;28;20886;-76
2021/09/21 06:14:41;;;;;;;8.82;7.57;;;;;;;14.76;60.81;101336.47;5006930;28;20448;-76
2021/09/21 06:17:07;;;;;;;8.07;7.38;;;;;;;14.77;60.86;101346.31;5002301;28;20404;-76
2021/09/21 06:19:32;;;;;;;8.52;7.72;;;;;;;14.81;61.49;101347.47;5010232;28;20475;-77
2021/09/21 06:21:57;;;;;;;11.23;8.13;;;;;;;14.86;60.76;101359.28;5006953;28;20420;-77
2021/09/21 06:24:23;;;;;;;8.30;7.50;;;;;;;14.82;59.91;101358.13;4999973;28;20852;-76
2021/09/21 06:26:48;;;;;;;8.63;7.83;;;;;;;14.78;59.69;101361.63;5007440;28;20472;-76
2021/09/21 06:29:15;;;;;;;10.13;7.67;;;;;;;14.78;59.54;101359.72;5003787;28;20408;-76
2021/09/21 06:31:41;;;;;;;8.07;7.10;;;;;;;14.78;59.38;101369.81;4983964;28;21440;-76
2021/09/21 06:34:06;;;;;;;7.65;7.00;;;;;;;14.77;59.55;101365.41;5003152;28;20418;-76
2021/09/21 06:36:31;;;;;;;7.40;6.73;;;;;;;14.81;59.45;101366.56;4999526;28;20785;-76
2021/09/21 06:38:56;;;;;;;9.67;7.70;;;;;;;14.84;59.27;101375.09;5004653;28;20408;-76
2021/09/21 06:41:22;;;;;;;8.20;7.30;;;;;;;14.90;59.29;101386.88;5005787;28;20422;-77
2021/09/21 06:43:47;;;;;;;7.67;6.87;;;;;;;14.98;59.10;101387.28;5007331;28;20490;-76
2021/09/21 06:46:12;;;;;;;7.70;6.67;;;;;;;15.02;58.76;101385.69;5003327;28;20405;-76
2021/09/21 06:48:40;;;;;;;7.93;7.20;;;;;;;15.02;58.63;101396.63;4990185;28;21852;-76
2021/09/21 06:51:07;;;;;;;7.65;7.05;;;;;;;15.02;59.26;101407.53;4992768;28;20432;-76
2021/09/21 06:53:32;;;;;;;7.68;6.97;;;;;;;15.08;59.15;101408.47;5007954;28;20906;-76
2021/09/21 06:55:58;;;;;;;7.82;7.15;;;;;;;15.13;59.81;101413.97;5008995;28;20412;-76
2021/09/21 06:58:23;;;;;;;7.70;7.10;;;;;;;15.19;59.83;101415.69;5013594;28;20412;-76
2021/09/21 07:00:49;;;;;;;8.53;7.50;;;;;;;15.22;59.41;101417.91;4997027;28;20864;-76
2021/09/21 07:03:14;;;;;;;8.37;7.67;;;;;;;15.27;59.13;101417.16;4995233;28;20482;-76
2021/09/21 07:05:39;;;;;;;7.90;7.20;;;;;;;15.31;58.96;101421.84;5011836;28;20479;-77
2021/09/21 07:08:05;;;;;;;8.47;7.67;;;;;;;15.34;59.35;101429.56;4997406;28;20461;-76
2021/09/21 07:10:31;;;;;;;7.30;6.80;;;;;;;15.37;59.07;101441.88;5007911;28;20415;-76
2021/09/21 07:12:56;;;;;;;7.70;6.90;;;;;;;15.41;59.08;101440.31;5010829;28;20424;-76
2021/09/21 07:15:30;;;;;;;7.20;6.70;;;;;;;15.39;58.60;101446.00;5012694;28;20447;-76
2021/09/21 07:17:56;;;;;;;7.65;7.07;;;;;;;15.35;58.24;101444.84;4995240;28;20414;-76
2021/09/21 07:20:23;;;;;;;8.50;7.70;;;;;;;15.34;58.75;101451.41;5013757;28;20887;-76
2021/09/21 07:22:49;;;;;;;8.55;7.10;;;;;;;15.35;58.34;101450.31;5010620;28;20561;-76
2021/09/21 07:25:14;;;;;;;7.93;7.30;;;;;;;15.33;58.48;101451.66;5011344;28;20507;-76
2021/09/21 07:27:40;;;;;;;10.53;7.47;;;;;;;15.36;58.15;101457.44;5013093;28;20437;-76
2021/09/21 07:30:07;;;;;;;11.02;7.13;;;;;;;15.45;58.71;101447.72;5014145;28;20512;-76
2021/09/21 07:32:38;;;;;;;7.50;7.00;;;;;;;15.47;58.23;101453.78;5009574;28;20447;-76
2021/09/21 07:35:05;;;;;;;8.32;7.53;;;;;;;15.47;57.74;101455.69;4994646;28;20400;-76
2021/09/21 07:37:30;;;;;;;7.85;6.65;;;;;;;15.50;58.01;101455.22;5012818;28;20400;-76
2021/09/21 07:39:56;;;;;;;10.52;6.90;;;;;;;15.60;58.32;101462.72;5012784;28;20407;-76
2021/09/21 07:42:22;;;;;;;8.20;7.60;;;;;;;15.69;58.11;101466.66;5010199;28;20950;-76
2021/09/21 07:44:47;;;;;;;9.88;7.90;;;;;;;15.74;57.52;101451.13;5011578;28;20445;-77
2021/09/21 07:47:13;;;;;;;7.97;7.27;;;;;;;15.75;57.28;101450.06;5013504;28;20417;-76
2021/09/21 07:49:39;;;;;;;10.10;7.45;;;;;;;15.80;57.89;101449.31;5012384;28;20420;-76
2021/09/21 07:52:05;;;;;;;7.83;7.03;;;;;;;15.86;57.02;101457.31;5013098;28;20408;-76
2021/09/21 07:54:30;;;;;;;8.03;7.33;;;;;;;15.92;56.93;101460.91;5012527;28;20420;-76
2021/09/21 07:56:55;;;;;;;8.13;7.33;;;;;;;16.01;57.27;101464.84;5010801;28;20421;-76
2021/09/21 07:59:21;;;;;;;9.10;7.45;;;;;;;16.05;56.83;101463.25;5007061;28;20465;-77
2021/09/21 08:01:46;;;;;;;8.50;7.60;;;;;;;16.02;56.18;101463.75;5011928;28;20792;-75
2021/09/21 08:04:11;;;;;;;7.57;6.93;;;;;;;16.07;56.10;101459.16;5008585;28;20506;-76
2021/09/21 08:06:37;;;;;;;8.90;7.13;;;;;;;16.14;55.86;101461.69;4994462;28;20904;-76
2021/09/21 08:09:02;;;;;;;11.63;7.47;;;;;;;16.15;55.68;101460.63;5012118;28;20420;-77
2021/09/21 08:11:27;;;;;;;8.30;7.70;;;;;;;16.17;55.08;101454.91;5013429;28;20488;-75
2021/09/21 08:13:53;;;;;;;9.80;7.60;;;;;;;16.15;55.14;101459.78;5012522;28;20468;-76
2021/09/21 08:16:19;;;;;;;7.80;7.00;;;;;;;16.14;55.25;101466.34;5010804;28;20401;-76
2021/09/21 08:18:44;;;;;;;8.00;7.20;;;;;;;16.14;54.98;101466.34;4990900;28;20931;-76
2021/09/21 08:21:10;;;;;;;8.40;7.53;;;;;;;16.16;55.29;101475.97;5009622;28;20486;-76
2021/09/21 08:23:35;;;;;;;8.23;7.43;;;;;;;16.20;54.77;101479.81;5005261;28;20533;-77
2021/09/21 08:26:01;;;;;;;7.67;7.07;;;;;;;16.28;54.25;101484.00;5007174;28;20413;-76
2021/09/21 08:28:26;;;;;;;7.43;6.73;;;;;;;16.39;53.67;101483.88;5011861;28;20439;-76
2021/09/21 08:30:52;;;;;;;11.37;7.77;;;;;;;16.48;53.27;101487.78;5012432;28;20408;-76
2021/09/21 08:33:17;;;;;;;8.45;7.30;;;;;;;16.54;53.46;101485.91;5010151;28;20487;-76
2021/09/21 08:35:42;;;;;;;11.43;7.83;;;;;;;16.58;53.26;101487.91;5009647;28;20436;-76
2021/09/21 08:38:07;;;;;;;7.33;6.73;;;;;;;16.68;53.55;101487.16;5010623;28;20412;-76
2021/09/21 08:40:33;;;;;;;7.97;7.28;;;;;;;16.85;54.03;101495.25;5012472;28;20400;-76
2021/09/21 08:42:59;;;;;;;8.30;6.50;;;;;;;17.01;53.43;101494.28;5009406;28;20434;-76
2021/09/21 08:45:25;;;;;;;8.77;6.70;;;;;;;17.16;52.40;101510.03;5007670;28;20409;-76
2021/09/21 08:47:51;;;;;;;7.53;6.83;;;;;;;17.23;51.59;101507.84;5010309;28;20493;-76
2021/09/21 08:50:17;;;;;;;7.07;6.37;;;;;;;17.22;51.70;101511.69;4991347;28;20961;-76
2021/09/21 08:52:42;;;;;;;7.47;6.70;;;;;;;17.18;50.42;101516.88;5011151;28;20397;-76
2021/09/21 08:55:09;;;;;;;6.85;6.28;;;;;;;17.23;50.62;101529.75;5010297;28;20420;-76
2021/09/21 08:57:36;;;;;;;6.97;6.38;;;;;;;17.28;50.25;101521.59;5011622;28;20480;-76
2021/09/21 09:00:04;;;;;;;7.95;6.47;;;;;;;17.29;49.33;101521.31;5011307;28;20397;-76
2021/09/21 09:02:29;;;;;;;6.78;6.10;;;;;;;17.39;49.54;101513.16;5003707;28;20404;-77
2021/09/21 09:05:03;;;;;;;6.75;6.20;;;;;;;17.43;48.62;101525.25;5009412;28;20424;-76
2021/09/21 09:07:34;;;;;;;6.65;6.05;;;;;;;17.47;47.81;101536.53;4999413;28;20456;-76
2021/09/21 09:10:05;;;;;;;5.88;5.43;;;;;;;17.60;46.80;101525.94;4990501;28;20408;-76
2021/09/21 09:12:33;;;;;;;9.05;6.07;;;;;;;17.63;46.33;101532.81;5011205;28;20419;-76
2021/09/21 09:15:07;;;;;;;6.07;4.95;;;;;;;17.62;46.97;101537.47;5007373;28;20543;-76
2021/09/21 09:17:32;;;;;;;16.60;15.02;;;;;;;17.62;45.33;101523.75;5006230;28;20412;-76
2021/09/21 09:19:57;;;;;;;9.10;5.33;;;;;;;17.73;45.30;101532.03;4989183;28;20815;-76
2021/09/21 09:22:26;;;;;;;7.17;5.23;;;;;;;17.61;44.87;101519.38;5009580;28;20409;-76
2021/09/21 09:24:56;;;;;;;15.93;5.13;;;;;;;17.38;44.97;101522.50;5003501;28;20421;-77
2021/09/21 09:27:34;;;;;;;6.15;4.85;;;;;;;17.29;45.38;101517.78;5004351;28;20416;-77
2021/09/21 09:30:03;;;;;;;5.65;4.88;;;;;;;17.21;45.99;101519.09;5002507;28;20443;-77
2021/09/21 09:32:28;;;;;;;5.38;4.97;;;;;;;17.13;46.22;101520.41;5020857;28;20417;-76
2021/09/21 09:34:59;;;;;;;9.00;5.27;;;;;;;17.23;46.76;101519.63;5011343;28;20400;-77
2021/09/21 09:37:24;;;;;;;7.43;5.82;;;;;;;17.42;46.62;101518.13;5011914;28;20455;-77
2021/09/21 09:39:59;;;;;;;6.87;5.30;;;;;;;17.58;45.79;101500.69;5010642;28;20420;-77
2021/09/21 09:42:24;;;;;;;7.72;4.85;;;;;;;17.80;45.27;101500.56;5011345;28;20408;-76
2021/09/21 09:44:49;;;;;;;5.53;4.73;;;;;;;18.10;44.13;101508.91;5000478;28;20417;-77
2021/09/21 09:47:15;;;;;;;9.70;4.13;;;;;;;18.95;42.22;101515.66;5008505;28;20480;-76
2021/09/21 09:49:42;;;;;;;4.73;4.20;;;;;;;19.92;39.85;101524.56;5006852;28;20404;-77
2021/09/21 09:52:13;;;;;;;4.60;4.20;;;;;;;20.15;39.25;101527.47;5009511;28;20768;-77
2021/09/21 09:54:41;;;;;;;6.67;4.17;;;;;;;20.45;38.44;101523.75;5016341;28;20410;-77
2021/09/21 09:57:08;;;;;;;5.15;4.70;;;;;;;20.80;38.24;101532.91;5008722;28;20408;-77
2021/09/21 09:59:34;;;;;;;4.15;3.85;;;;;;;21.02;37.80;101545.13;4991284;28;20496;-77
2021/09/21 10:02:00;;;;;;;137.43;122.97;;;;;;;21.51;37.35;101541.38;4993969;28;20476;-76
2021/09/21 10:04:25;;;;;;;4.38;4.00;;;;;;;22.01;35.77;101549.13;4989367;28;20975;-77
2021/09/21 10:06:51;;;;;;;1043.40;116.53;;;;;;;22.36;35.52;101555.31;5009178;28;20797;-77
2021/09/21 10:09:18;;;;;;;1259.43;188.60;;;;;;;22.53;35.53;101550.91;5006701;28;20423;-77
2021/09/21 10:11:46;;;;;;;1512.03;200.52;;;;;;;22.89;35.58;101555.91;5011043;28;20791;-78
2021/09/21 10:14:12;;;;;;;4.57;4.30;;;;;;;23.30;34.95;101562.44;5008862;28;20427;-77
2021/09/21 10:16:54;;;;;;;4.60;4.20;;;;;;;23.80;33.33;101557.94;4985715;28;20440;-77
2021/09/21 10:19:25;;;;;;;4.03;3.75;;;;;;;24.11;31.64;101561.72;5006214;28;20420;-77
2021/09/21 10:21:53;;;;;;;3.95;3.47;;;;;;;24.39;31.45;101570.88;5009450;28;20537;-77
2021/09/21 10:24:30;;;;;;;4.03;3.83;;;;;;;24.61;31.66;101564.53;4997161;28;20916;-77
2021/09/21 10:27:02;;;;;;;4.20;3.80;;;;;;;25.03;30.54;101557.75;5011424;28;20511;-77
2021/09/21 10:29:28;;;;;;;3.95;3.75;;;;;;;25.07;29.70;101567.06;5010998;28;20411;-78
2021/09/21 10:31:58;;;;;;;3.60;3.37;;;;;;;25.38;30.79;101556.84;5004164;28;20416;-78
2021/09/21 10:34:24;;;;;;;4.10;3.50;;;;;;;25.84;29.66;101563.97;5004083;28;20763;-78
2021/09/21 10:36:58;;;;;;;3.87;3.30;;;;;;;26.17;29.70;101562.47;5006144;28;20411;-78
2021/09/21 10:39:24;;;;;;;3.75;3.55;;;;;;;26.52;27.71;101564.16;5010953;28;20473;-77
2021/09/21 10:42:03;;;;;;;3.83;3.63;;;;;;;26.60;27.01;101568.13;4997730;28;20500;-77
2021/09/21 10:44:30;;;;;;;3.90;3.47;;;;;;;26.28;28.12;101581.28;5013110;28;20436;-78
2021/09/21 10:46:59;;;;;;;4.10;3.80;;;;;;;26.39;27.87;101578.22;5022806;28;20405;-78
2021/09/21 10:49:30;;;;;;;4.38;4.07;;;;;;;26.26;27.86;101571.66;5012514;28;20807;-78
2021/09/21 10:52:03;;;;;;;5.60;4.18;;;;;;;26.17;28.11;101568.84;5008388;28;20416;-77
2021/09/21 10:54:37;;;;;;;3.42;3.30;;;;;;;26.22;28.93;101567.88;5012775;28;20876;-78
2021/09/21 10:57:14;;;;;;;3.25;3.05;;;;;;;26.17;29.53;101565.25;5011503;28;20788;-77
2021/09/21 11:00:05;;;;;;;3.72;3.60;;;;;;;26.32;29.51;101564.78;4994391;28;21172;-77
2021/09/21 11:02:43;;;;;;;6.10;3.95;;;;;;;26.31;29.19;101552.06;5006410;28;20760;-78
2021/09/21 11:05:16;;;;;;;4.18;3.88;;;;;;;26.10;29.16;101554.59;4994140;28;20511;-80
2021/09/21 11:07:57;;;;;;;3.80;3.53;;;;;;;26.06;29.92;101555.53;5005466;28;20409;-79
2021/09/21 11:10:30;;;;;;;4.22;3.95;;;;;;;26.08;29.82;101551.28;4995574;28;20397;-80
2021/09/21 11:12:56;;;;;;;5.07;4.18;;;;;;;26.24;29.39;101560.88;5002344;28;20904;-79
2021/09/21 11:15:25;;;;;;;4.03;3.72;;;;;;;26.47;29.87;101552.41;5012314;28;20416;-79
2021/09/21 11:18:04;;;;;;;4.60;4.22;;;;;;;26.73;28.31;101556.84;5006580;28;20488;-79
2021/09/21 11:20:30;;;;;;;4.03;3.75;;;;;;;27.02;28.38;101550.63;5000298;28;20436;-79
2021/09/21 11:23:00;;;;;;;4.40;3.80;;;;;;;27.05;28.00;101551.94;4998103;28;20891;-78
2021/09/21 11:25:28;;;;;;;4.47;4.18;;;;;;;26.67;29.06;101555.38;4999740;28;20456;-78
2021/09/21 11:27:55;;;;;;;4.10;3.90;;;;;;;26.35;29.87;101546.63;4998640;28;20841;-78
2021/09/21 11:30:22;;;;;;;4.65;4.35;;;;;;;26.08;28.77;101548.50;4998321;28;20492;-78